Time,TemperatureF,DewpointF,PressureIn,WindDirection,WindDirectionDegrees,WindSpeedMPH,WindSpeedGustMPH,Humidity,HourlyPrecipIn,Conditions,Clouds,dailyrainin,SoftwareType,DateUTC
2013-01-03 00:01:00,3.6,-2.6,30.64,East,101,6.0,9.0,75,0.00,,,0.00,Wunderground v.1.15,2013-01-03 07:01:00,
2013-01-03 00:11:00,3.3,-2.8,30.64,East,81,6.0,6.0,75,0.00,,,0.00,Wunderground v.1.15,2013-01-03 07:11:00,
2013-01-03 00:20:00,3.1,-2.8,30.64,East,82,5.0,7.0,76,0.00,,,0.00,Wunderground v.1.15,2013-01-03 07:20:00,
2013-01-03 00:26:00,3.1,-3.0,30.64,East,89,5.0,7.0,75,0.00,,,0.00,Wunderground v.1.15,2013-01-03 07:26:00,
2013-01-03 00:35:00,2.5,-3.3,30.65,East,90,4.0,8.0,76,0.00,,,0.00,Wunderground v.1.15,2013-01-03 07:35:00,
2013-01-03 00:40:00,2.5,-3.3,30.65,ESE,113,5.0,7.0,76,0.00,,,0.00,Wunderground v.1.15,2013-01-03 07:40:00,
2013-01-03 00:50:00,2.2,-3.6,30.65,East,82,5.0,6.0,76,0.00,,,0.00,Wunderground v.1.15,2013-01-03 07:50:00,
2013-01-03 00:55:00,2.1,-3.7,30.66,ESE,102,6.0,6.0,76,0.00,,,0.00,Wunderground v.1.15,2013-01-03 07:55:00,
2013-01-03 01:01:00,2.0,-3.8,30.66,East,83,6.0,6.0,76,0.00,,,0.00,Wunderground v.1.15,2013-01-03 08:01:00,
2013-01-03 01:10:00,1.7,-4.1,30.66,East,88,6.0,7.0,76,0.00,,,0.00,Wunderground v.1.15,2013-01-03 08:10:00,
2013-01-03 01:16:00,1.5,-4.3,30.67,East,94,6.0,9.0,76,0.00,,,0.00,Wunderground v.1.15,2013-01-03 08:16:00,
2013-01-03 01:25:00,1.2,-4.6,30.67,ESE,106,6.0,6.0,76,0.00,,,0.00,Wunderground v.1.15,2013-01-03 08:25:00,
2013-01-03 01:31:00,1.1,-4.7,30.68,ESE,104,5.0,7.0,76,0.00,,,0.00,Wunderground v.1.15,2013-01-03 08:31:00,
2013-01-03 01:40:00,1.0,-4.5,30.68,East,90,6.0,6.0,77,0.00,,,0.00,Wunderground v.1.15,2013-01-03 08:40:00,
2013-01-03 01:45:00,0.9,-4.9,30.69,East,101,5.0,10.0,76,0.00,,,0.00,Wunderground v.1.15,2013-01-03 08:45:00,
2013-01-03 01:50:00,0.9,-4.6,30.69,East,101,6.0,6.0,77,0.00,,,0.00,Wunderground v.1.15,2013-01-03 08:50:00,
2013-01-03 01:55:00,0.9,-4.6,30.69,East,81,5.0,9.0,77,0.00,,,0.00,Wunderground v.1.15,2013-01-03 08:55:00,
2013-01-03 02:01:00,0.9,-4.9,30.69,East,96,6.0,11.0,76,0.00,,,0.00,Wunderground v.1.15,2013-01-03 09:01:00,
2013-01-03 02:10:00,0.7,-5.1,30.69,East,98,7.0,7.0,76,0.00,,,0.00,Wunderground v.1.15,2013-01-03 09:10:00,
2013-01-03 02:16:00,0.7,-4.8,30.70,ENE,58,5.0,7.0,77,0.00,,,0.00,Wunderground v.1.15,2013-01-03 09:16:00,
2013-01-03 02:21:00,0.8,-4.7,30.70,ENE,62,6.0,9.0,77,0.00,,,0.00,Wunderground v.1.15,2013-01-03 09:21:00,
2013-01-03 02:30:00,0.7,-5.1,30.70,ENE,69,6.0,7.0,76,0.00,,,0.00,Wunderground v.1.15,2013-01-03 09:30:00,
2013-01-03 02:36:00,0.5,-5.3,30.70,ENE,78,6.0,7.0,76,0.00,,,0.00,Wunderground v.1.15,2013-01-03 09:36:00,
2013-01-03 02:45:00,0.1,-5.7,30.71,East,79,5.0,8.0,76,0.00,,,0.00,Wunderground v.1.15,2013-01-03 09:45:00,
2013-01-03 02:51:00,0.0,-5.8,30.71,East,98,6.0,6.0,76,0.00,,,0.00,Wunderground v.1.15,2013-01-03 09:51:00,
2013-01-03 03:01:00,-0.2,-5.7,30.71,East,86,6.0,7.0,77,0.00,,,0.00,Wunderground v.1.15,2013-01-03 10:01:00,
2013-01-03 03:10:00,-0.2,-5.7,30.71,East,88,6.0,8.0,77,0.00,,,0.00,Wunderground v.1.15,2013-01-03 10:10:00,
2013-01-03 03:16:00,-0.3,-5.8,30.71,ESE,104,6.0,8.0,77,0.00,,,0.00,Wunderground v.1.15,2013-01-03 10:16:00,
2013-01-03 03:26:00,-0.5,-6.0,30.71,East,86,6.0,6.0,77,0.00,,,0.00,Wunderground v.1.15,2013-01-03 10:26:00,
2013-01-03 03:31:00,-0.5,-6.0,30.71,ENE,76,6.0,6.0,77,0.00,,,0.00,Wunderground v.1.15,2013-01-03 10:31:00,
2013-01-03 03:40:00,-0.7,-6.2,30.72,East,82,6.0,6.0,77,0.00,,,0.00,Wunderground v.1.15,2013-01-03 10:40:00,
2013-01-03 03:45:00,-0.7,-6.2,30.72,East,92,7.0,7.0,77,0.00,,,0.00,Wunderground v.1.15,2013-01-03 10:45:00,
2013-01-03 03:51:00,-0.7,-6.2,30.72,ENE,78,7.0,8.0,77,0.00,,,0.00,Wunderground v.1.15,2013-01-03 10:51:00,
2013-01-03 03:56:00,-0.6,-6.1,30.71,East,101,7.0,8.0,77,0.00,,,0.00,Wunderground v.1.15,2013-01-03 10:56:00,
2013-01-03 04:01:00,-0.5,-6.0,30.71,East,89,7.0,7.0,77,0.00,,,0.00,Wunderground v.1.15,2013-01-03 11:01:00,
2013-01-03 04:11:00,-0.5,-6.0,30.72,ENE,66,7.0,7.0,77,0.00,,,0.00,Wunderground v.1.15,2013-01-03 11:11:00,
2013-01-03 04:21:00,-0.4,-5.9,30.71,ENE,70,7.0,7.0,77,0.00,,,0.00,Wunderground v.1.15,2013-01-03 11:21:00,
2013-01-03 04:31:00,-0.4,-5.9,30.71,ENE,65,7.0,8.0,77,0.00,,,0.00,Wunderground v.1.15,2013-01-03 11:31:00,
2013-01-03 04:40:00,-0.3,-6.1,30.71,ESE,106,7.0,12.0,76,0.00,,,0.00,Wunderground v.1.15,2013-01-03 11:40:00,
2013-01-03 04:50:00,-0.3,-6.1,30.71,ENE,65,8.0,8.0,76,0.00,,,0.00,Wunderground v.1.15,2013-01-03 11:50:00,
2013-01-03 04:55:00,-0.3,-6.1,30.72,ENE,78,7.0,8.0,76,0.00,,,0.00,Wunderground v.1.15,2013-01-03 11:55:00,
2013-01-03 05:01:00,-0.4,-6.2,30.72,ENE,67,7.0,7.0,76,0.00,,,0.00,Wunderground v.1.15,2013-01-03 12:01:00,
2013-01-03 05:11:00,-0.5,-6.3,30.72,East,92,7.0,8.0,76,0.00,,,0.00,Wunderground v.1.15,2013-01-03 12:11:00,
2013-01-03 05:21:00,-0.5,-6.3,30.71,NE,55,7.0,9.0,76,0.00,,,0.00,Wunderground v.1.15,2013-01-03 12:21:00,
2013-01-03 05:31:00,-0.5,-6.3,30.71,ENE,78,8.0,8.0,76,0.00,,,0.00,Wunderground v.1.15,2013-01-03 12:31:00,
2013-01-03 05:40:00,-0.7,-6.7,30.72,NE,44,7.0,7.0,75,0.00,,,0.00,Wunderground v.1.15,2013-01-03 12:40:00,
2013-01-03 05:50:00,-0.7,-6.7,30.72,East,97,7.0,7.0,75,0.00,,,0.00,Wunderground v.1.15,2013-01-03 12:50:00,
2013-01-03 05:55:00,-0.9,-6.9,30.72,East,98,7.0,8.0,75,0.00,,,0.00,Wunderground v.1.15,2013-01-03 12:55:00,
2013-01-03 06:01:00,-0.9,-6.9,30.72,ENE,75,7.0,7.0,75,0.00,,,0.00,Wunderground v.1.15,2013-01-03 13:01:00,
2013-01-03 06:11:00,-1.3,-7.3,30.72,ENE,60,7.0,7.0,75,0.00,,,0.00,Wunderground v.1.15,2013-01-03 13:11:00,
2013-01-03 06:20:00,-1.4,-7.1,30.72,ESE,106,6.0,6.0,76,0.00,,,0.00,Wunderground v.1.15,2013-01-03 13:20:00,
2013-01-03 06:26:00,-1.5,-7.2,30.72,ESE,110,6.0,6.0,76,0.00,,,0.00,Wunderground v.1.15,2013-01-03 13:26:00,
2013-01-03 06:35:00,-1.6,-7.3,30.72,ENE,78,6.0,10.0,76,0.00,,,0.00,Wunderground v.1.15,2013-01-03 13:35:00,
2013-01-03 06:41:00,-1.6,-7.3,30.72,East,83,7.0,8.0,76,0.00,,,0.00,Wunderground v.1.15,2013-01-03 13:41:00,
2013-01-03 06:51:00,-1.9,-7.9,30.72,East,84,7.0,8.0,75,0.00,,,0.00,Wunderground v.1.15,2013-01-03 13:51:00,
2013-01-03 06:56:00,-2.1,-7.8,30.72,ENE,77,7.0,10.0,76,0.00,,,0.00,Wunderground v.1.15,2013-01-03 13:56:00,
2013-01-03 07:01:00,-2.0,-7.7,30.73,ENE,76,8.0,9.0,76,0.00,,,0.00,Wunderground v.1.15,2013-01-03 14:01:00,
2013-01-03 07:10:00,-2.1,-8.1,30.73,East,97,8.0,8.0,75,0.00,,,0.00,Wunderground v.1.15,2013-01-03 14:10:00,
2013-01-03 07:16:00,-2.3,-8.3,30.73,East,88,8.0,8.0,75,0.00,,,0.00,Wunderground v.1.15,2013-01-03 14:16:00,
2013-01-03 07:26:00,-2.3,-8.0,30.73,East,81,8.0,8.0,76,0.00,,,0.00,Wunderground v.1.15,2013-01-03 14:26:00,
2013-01-03 07:35:00,-2.4,-8.1,30.73,East,82,8.0,9.0,76,0.00,,,0.00,Wunderground v.1.15,2013-01-03 14:35:00,
2013-01-03 07:40:00,-2.4,-8.4,30.74,East,90,8.0,8.0,75,0.00,,,0.00,Wunderground v.1.15,2013-01-03 14:40:00,
2013-01-03 07:45:00,-2.5,-8.5,30.73,East,90,7.0,8.0,75,0.00,,,0.00,Wunderground v.1.15,2013-01-03 14:45:00,
2013-01-03 07:51:00,-2.6,-8.6,30.73,East,96,7.0,8.0,75,0.00,,,0.00,Wunderground v.1.15,2013-01-03 14:51:00,
2013-01-03 08:01:00,-2.7,-8.7,30.73,East,93,8.0,8.0,75,0.00,,,0.00,Wunderground v.1.15,2013-01-03 15:01:00,
2013-01-03 08:11:00,-2.6,-8.3,30.73,SE,124,8.0,8.0,76,0.00,,,0.00,Wunderground v.1.15,2013-01-03 15:11:00,
2013-01-03 08:21:00,-2.3,-8.3,30.73,ESE,104,7.0,7.0,75,0.00,,,0.00,Wunderground v.1.15,2013-01-03 15:21:00,
2013-01-03 08:31:00,-1.9,-7.6,30.73,ENE,74,7.0,8.0,76,0.00,,,0.00,Wunderground v.1.15,2013-01-03 15:31:00,
2013-01-03 08:41:00,-1.0,-7.0,30.73,East,96,8.0,8.0,75,0.00,,,0.00,Wunderground v.1.15,2013-01-03 15:41:00,
2013-01-03 08:46:00,-0.5,-6.5,30.73,East,99,8.0,8.0,75,0.00,,,0.00,Wunderground v.1.15,2013-01-03 15:46:00,
2013-01-03 08:51:00,0.0,-6.0,30.73,ENE,74,8.0,8.0,75,0.00,,,0.00,Wunderground v.1.15,2013-01-03 15:51:00,
2013-01-03 09:01:00,1.3,-5.1,30.73,East,85,7.0,7.0,74,0.00,,,0.00,Wunderground v.1.15,2013-01-03 16:01:00,
2013-01-03 09:16:00,3.6,-3.1,30.73,East,88,5.0,6.0,73,0.00,,,0.00,Wunderground v.1.15,2013-01-03 16:16:00,
2013-01-03 09:25:00,4.6,-2.4,30.74,East,83,2.0,5.0,72,0.00,,,0.00,Wunderground v.1.15,2013-01-03 16:25:00,
2013-01-03 09:31:00,5.3,-1.8,30.74,SW,221,2.0,2.0,72,0.00,,,0.00,Wunderground v.1.15,2013-01-03 16:31:00,
2013-01-03 09:41:00,6.5,-0.6,30.73,South,182,0.0,1.0,72,0.00,,,0.00,Wunderground v.1.15,2013-01-03 16:41:00,
2013-01-03 09:50:00,8.0,0.5,30.73,SW,219,0.0,1.0,71,0.00,,,0.00,Wunderground v.1.15,2013-01-03 16:50:00,
2013-01-03 10:01:00,10.7,2.5,30.73,SSW,196,0.0,0.0,69,0.00,,,0.00,Wunderground v.1.15,2013-01-03 17:01:00,
2013-01-03 10:11:00,12.1,3.2,30.73,SE,132,0.0,0.0,67,0.00,,,0.00,Wunderground v.1.15,2013-01-03 17:11:00,
2013-01-03 10:16:00,13.5,3.9,30.73,SSE,155,0.0,0.0,65,0.00,,,0.00,Wunderground v.1.15,2013-01-03 17:16:00,
2013-01-03 10:26:00,16.4,4.9,30.71,NNW,327,1.0,2.0,60,0.00,,,0.00,Wunderground v.1.15,2013-01-03 17:26:00,
2013-01-03 10:35:00,18.2,5.5,30.71,NNW,338,3.0,6.0,57,0.00,,,0.00,Wunderground v.1.15,2013-01-03 17:35:00,
2013-01-03 10:40:00,18.7,5.6,30.71,NW,323,3.0,4.0,56,0.00,,,0.00,Wunderground v.1.15,2013-01-03 17:40:00,
2013-01-03 10:45:00,19.2,6.1,30.70,NW,317,3.0,7.0,56,0.00,,,0.00,Wunderground v.1.15,2013-01-03 17:45:00,
2013-01-03 10:50:00,19.4,5.8,30.70,NNW,331,3.0,6.0,55,0.00,,,0.00,Wunderground v.1.15,2013-01-03 17:50:00,
2013-01-03 11:01:00,19.8,6.6,30.69,NNW,331,4.0,4.0,56,0.00,,,0.00,Wunderground v.1.15,2013-01-03 18:01:00,
2013-01-03 11:11:00,20.4,6.0,30.69,WNW,296,3.0,3.0,53,0.00,,,0.00,Wunderground v.1.15,2013-01-03 18:11:00,
2013-01-03 11:20:00,20.5,6.1,30.68,NNW,333,3.0,3.0,53,0.00,,,0.00,Wunderground v.1.15,2013-01-03 18:20:00,
2013-01-03 11:26:00,20.7,5.8,30.67,NW,321,3.0,3.0,52,0.00,,,0.00,Wunderground v.1.15,2013-01-03 18:26:00,
2013-01-03 11:35:00,20.7,5.0,30.67,NW,313,4.0,5.0,50,0.00,,,0.00,Wunderground v.1.15,2013-01-03 18:35:00,
2013-01-03 11:41:00,21.0,4.8,30.66,NW,326,3.0,3.0,49,0.00,,,0.00,Wunderground v.1.15,2013-01-03 18:41:00,
2013-01-03 11:50:00,21.0,6.1,30.66,NW,320,4.0,4.0,52,0.00,,,0.00,Wunderground v.1.15,2013-01-03 18:50:00,
2013-01-03 11:56:00,21.1,6.2,30.66,NNW,331,3.0,5.0,52,0.00,,,0.00,Wunderground v.1.15,2013-01-03 18:56:00,
2013-01-03 12:15:00,21.0,6.5,30.65,West,279,3.0,7.0,53,0.00,,,0.00,Wunderground v.1.15,2013-01-03 19:15:00,
2013-01-03 12:51:00,21.3,5.5,30.65,WNW,300,4.0,4.0,50,0.00,,,0.00,Wunderground v.1.15,2013-01-03 19:51:00,
2013-01-03 13:01:00,21.1,6.6,30.64,West,279,3.0,6.0,53,0.00,,,0.00,Wunderground v.1.15,2013-01-03 20:01:00,
2013-01-03 13:10:00,21.2,5.9,30.64,NNW,337,4.0,5.0,51,0.00,,,0.00,Wunderground v.1.15,2013-01-03 20:10:00,
2013-01-03 13:16:00,21.2,6.3,30.64,NNW,333,4.0,8.0,52,0.00,,,0.00,Wunderground v.1.15,2013-01-03 20:16:00,
2013-01-03 13:26:00,20.9,6.0,30.65,WNW,298,4.0,5.0,52,0.00,,,0.00,Wunderground v.1.15,2013-01-03 20:26:00,
2013-01-03 13:35:00,20.9,6.4,30.65,NNW,333,3.0,5.0,53,0.00,,,0.00,Wunderground v.1.15,2013-01-03 20:35:00,
2013-01-03 13:40:00,21.1,7.0,30.65,NW,320,3.0,3.0,54,0.00,,,0.00,Wunderground v.1.15,2013-01-03 20:40:00,
2013-01-03 13:45:00,21.0,6.9,30.65,NNW,335,3.0,3.0,54,0.00,,,0.00,Wunderground v.1.15,2013-01-03 20:45:00,
2013-01-03 13:55:00,20.8,6.3,30.65,NNW,342,3.0,3.0,53,0.00,,,0.00,Wunderground v.1.15,2013-01-03 20:55:00,
2013-01-03 14:01:00,21.0,6.9,30.64,WNW,287,3.0,3.0,54,0.00,,,0.00,Wunderground v.1.15,2013-01-03 21:01:00,
2013-01-03 14:10:00,20.9,7.2,30.64,SW,223,2.0,2.0,55,0.00,,,0.00,Wunderground v.1.15,2013-01-03 21:10:00,
2013-01-03 14:15:00,20.7,7.1,30.65,NW,322,2.0,2.0,55,0.00,,,0.00,Wunderground v.1.15,2013-01-03 21:15:00,
2013-01-03 14:21:00,20.7,6.7,30.65,NW,321,2.0,3.0,54,0.00,,,0.00,Wunderground v.1.15,2013-01-03 21:21:00,
2013-01-03 14:30:00,20.2,7.0,30.64,WNW,284,3.0,3.0,56,0.00,,,0.00,Wunderground v.1.15,2013-01-03 21:30:00,
2013-01-03 14:36:00,19.5,7.9,30.65,WNW,302,2.0,3.0,60,0.00,,,0.00,Wunderground v.1.15,2013-01-03 21:36:00,
2013-01-03 14:45:00,19.1,8.2,30.65,West,261,2.0,2.0,62,0.00,,,0.00,Wunderground v.1.15,2013-01-03 21:45:00,
2013-01-03 14:50:00,18.8,8.3,30.64,WNW,294,2.0,2.0,63,0.00,,,0.00,Wunderground v.1.15,2013-01-03 21:50:00,
2013-01-03 15:01:00,17.5,7.7,30.64,SW,214,1.0,1.0,65,0.00,,,0.00,Wunderground v.1.15,2013-01-03 22:01:00,
2013-01-03 15:10:00,16.6,7.5,30.65,SSW,211,1.0,2.0,67,0.00,,,0.00,Wunderground v.1.15,2013-01-03 22:10:00,
2013-01-03 15:15:00,16.3,7.6,30.65,SSW,209,1.0,2.0,68,0.00,,,0.00,Wunderground v.1.15,2013-01-03 22:15:00,
2013-01-03 15:20:00,15.9,7.8,30.65,SSW,196,1.0,1.0,70,0.00,,,0.00,Wunderground v.1.15,2013-01-03 22:20:00,
2013-01-03 15:30:00,15.1,7.4,30.64,SSW,205,0.0,0.0,71,0.00,,,0.00,Wunderground v.1.15,2013-01-03 22:30:00,
2013-01-03 15:35:00,15.0,7.6,30.64,SSW,198,0.0,0.0,72,0.00,,,0.00,Wunderground v.1.15,2013-01-03 22:35:00,
2013-01-03 15:40:00,14.9,7.5,30.64,SSW,198,0.0,0.0,72,0.00,,,0.00,Wunderground v.1.15,2013-01-03 22:40:00,
2013-01-03 15:45:00,14.6,7.2,30.64,South,176,0.0,0.0,72,0.00,,,0.00,Wunderground v.1.15,2013-01-03 22:45:00,
2013-01-03 15:51:00,14.3,7.2,30.64,South,173,0.0,0.0,73,0.00,,,0.00,Wunderground v.1.15,2013-01-03 22:51:00,
2013-01-03 16:01:00,13.7,6.6,30.64,South,181,0.0,0.0,73,0.00,,,0.00,Wunderground v.1.15,2013-01-03 23:01:00,
2013-01-03 16:11:00,12.8,6.4,30.64,South,186,0.0,0.0,75,0.00,,,0.00,Wunderground v.1.15,2013-01-03 23:11:00,
2013-01-03 16:20:00,12.0,5.9,30.65,South,182,0.0,0.0,76,0.00,,,0.00,Wunderground v.1.15,2013-01-03 23:20:00,
2013-01-03 16:26:00,11.6,5.8,30.65,South,182,0.0,0.0,77,0.00,,,0.00,Wunderground v.1.15,2013-01-03 23:26:00,
2013-01-03 16:36:00,10.7,5.5,30.65,South,182,0.0,0.0,79,0.00,,,0.00,Wunderground v.1.15,2013-01-03 23:36:00,
2013-01-03 16:41:00,10.6,5.4,30.65,South,182,0.0,0.0,79,0.00,,,0.00,Wunderground v.1.15,2013-01-03 23:41:00,
2013-01-03 16:50:00,9.6,4.7,30.65,South,182,0.0,0.0,80,0.00,,,0.00,Wunderground v.1.15,2013-01-03 23:50:00,
2013-01-03 16:55:00,9.5,4.6,30.66,South,182,0.0,0.0,80,0.00,,,0.00,Wunderground v.1.15,2013-01-03 23:55:00,
2013-01-03 17:01:00,8.9,4.0,30.66,South,182,0.0,0.0,80,0.00,,,0.00,Wunderground v.1.15,2013-01-04 00:01:00,
2013-01-03 17:11:00,8.4,3.8,30.66,South,182,0.0,0.0,81,0.00,,,0.00,Wunderground v.1.15,2013-01-04 00:11:00,
2013-01-03 17:21:00,7.7,3.1,30.67,South,182,0.0,0.0,81,0.00,,,0.00,Wunderground v.1.15,2013-01-04 00:21:00,
2013-01-03 17:26:00,7.2,2.9,30.67,South,182,0.0,0.0,82,0.00,,,0.00,Wunderground v.1.15,2013-01-04 00:26:00,
2013-01-03 17:35:00,7.1,2.8,30.68,South,182,0.0,0.0,82,0.00,,,0.00,Wunderground v.1.15,2013-01-04 00:35:00,
2013-01-03 17:45:00,6.4,1.8,30.68,South,182,0.0,0.0,81,0.00,,,0.00,Wunderground v.1.15,2013-01-04 00:45:00,
2013-01-03 17:55:00,6.8,2.5,30.68,South,182,0.0,0.0,82,0.00,,,0.00,Wunderground v.1.15,2013-01-04 00:55:00,
2013-01-03 18:01:00,7.0,2.4,30.69,South,182,0.0,0.0,81,0.00,,,0.00,Wunderground v.1.15,2013-01-04 01:01:00,
2013-01-03 18:10:00,6.2,1.4,30.69,South,182,0.0,0.0,80,0.00,,,0.00,Wunderground v.1.15,2013-01-04 01:10:00,
2013-01-03 18:15:00,5.8,1.0,30.70,South,182,0.0,0.0,80,0.00,,,0.00,Wunderground v.1.15,2013-01-04 01:15:00,
2013-01-03 18:21:00,5.5,0.7,30.70,South,182,0.0,0.0,80,0.00,,,0.00,Wunderground v.1.15,2013-01-04 01:21:00,
2013-01-03 18:30:00,4.8,0.2,30.70,South,182,0.0,0.0,81,0.00,,,0.00,Wunderground v.1.15,2013-01-04 01:30:00,
2013-01-03 18:35:00,5.0,0.4,30.70,South,182,0.0,1.0,81,0.00,,,0.00,Wunderground v.1.15,2013-01-04 01:35:00,
2013-01-03 18:40:00,4.4,-0.4,30.70,SE,133,0.0,0.0,80,0.00,,,0.00,Wunderground v.1.15,2013-01-04 01:40:00,
2013-01-03 18:50:00,3.8,-0.7,30.71,ESE,122,0.0,1.0,81,0.00,,,0.00,Wunderground v.1.15,2013-01-04 01:50:00,
2013-01-03 19:01:00,4.3,0.0,30.71,ESE,113,1.0,1.0,82,0.00,,,0.00,Wunderground v.1.15,2013-01-04 02:01:00,
2013-01-03 19:11:00,4.5,0.0,30.71,ESE,111,0.0,2.0,81,0.00,,,0.00,Wunderground v.1.15,2013-01-04 02:11:00,
2013-01-03 19:21:00,4.2,-0.6,30.71,East,90,3.0,3.0,80,0.00,,,0.00,Wunderground v.1.15,2013-01-04 02:21:00,
2013-01-03 19:30:00,3.7,-1.1,30.71,East,91,2.0,3.0,80,0.00,,,0.00,Wunderground v.1.15,2013-01-04 02:30:00,
2013-01-03 19:35:00,3.7,-1.1,30.72,East,92,3.0,3.0,80,0.00,,,0.00,Wunderground v.1.15,2013-01-04 02:35:00,
2013-01-03 19:40:00,4.0,-0.8,30.71,East,101,3.0,3.0,80,0.00,,,0.00,Wunderground v.1.15,2013-01-04 02:40:00,
2013-01-03 19:50:00,4.3,-0.8,30.71,ESE,102,4.0,5.0,79,0.00,,,0.00,Wunderground v.1.15,2013-01-04 02:50:00,
2013-01-03 19:56:00,4.5,-0.6,30.72,East,87,5.0,5.0,79,0.00,,,0.00,Wunderground v.1.15,2013-01-04 02:56:00,
2013-01-03 20:01:00,4.3,-1.0,30.71,East,100,5.0,5.0,78,0.00,,,0.00,Wunderground v.1.15,2013-01-04 03:01:00,
2013-01-03 20:10:00,3.9,-1.4,30.72,ESE,103,5.0,5.0,78,0.00,,,0.00,Wunderground v.1.15,2013-01-04 03:10:00,
2013-01-03 20:16:00,3.9,-1.4,30.72,ESE,103,4.0,5.0,78,0.00,,,0.00,Wunderground v.1.15,2013-01-04 03:16:00,
2013-01-03 20:25:00,3.7,-1.6,30.72,East,97,4.0,6.0,78,0.00,,,0.00,Wunderground v.1.15,2013-01-04 03:25:00,
2013-01-03 20:30:00,3.7,-1.6,30.72,ENE,76,5.0,5.0,78,0.00,,,0.00,Wunderground v.1.15,2013-01-04 03:30:00,
2013-01-03 20:35:00,3.8,-1.5,30.72,ENE,74,6.0,9.0,78,0.00,,,0.00,Wunderground v.1.15,2013-01-04 03:35:00,
2013-01-03 20:40:00,3.8,-1.8,30.72,ESE,105,6.0,6.0,77,0.00,,,0.00,Wunderground v.1.15,2013-01-04 03:40:00,
2013-01-03 20:45:00,3.7,-1.9,30.72,East,86,5.0,7.0,77,0.00,,,0.00,Wunderground v.1.15,2013-01-04 03:45:00,
2013-01-03 20:51:00,3.4,-2.2,30.72,East,86,5.0,10.0,77,0.00,,,0.00,Wunderground v.1.15,2013-01-04 03:51:00,
2013-01-03 20:56:00,3.3,-2.3,30.72,East,92,6.0,10.0,77,0.00,,,0.00,Wunderground v.1.15,2013-01-04 03:56:00,
2013-01-03 21:01:00,3.1,-2.5,30.72,ENE,78,6.0,6.0,77,0.00,,,0.00,Wunderground v.1.15,2013-01-04 04:01:00,
2013-01-03 21:11:00,3.0,-2.6,30.72,East,80,7.0,7.0,77,0.00,,,0.00,Wunderground v.1.15,2013-01-04 04:11:00,
2013-01-03 21:21:00,2.9,-2.7,30.72,ENE,66,7.0,7.0,77,0.00,,,0.00,Wunderground v.1.15,2013-01-04 04:21:00,
2013-01-03 21:31:00,2.7,-2.9,30.73,ENE,78,7.0,7.0,77,0.00,,,0.00,Wunderground v.1.15,2013-01-04 04:31:00,
2013-01-03 21:40:00,2.5,-3.1,30.73,East,91,7.0,7.0,77,0.00,,,0.00,Wunderground v.1.15,2013-01-04 04:40:00,
2013-01-03 21:45:00,2.4,-3.4,30.73,East,80,7.0,8.0,76,0.00,,,0.00,Wunderground v.1.15,2013-01-04 04:45:00,
2013-01-03 21:50:00,2.3,-3.3,30.73,East,79,7.0,8.0,77,0.00,,,0.00,Wunderground v.1.15,2013-01-04 04:50:00,
2013-01-03 22:06:00,2.2,-3.6,30.73,NE,56,7.0,8.0,76,0.00,,,0.00,Wunderground v.1.15,2013-01-04 05:06:00,
2013-01-03 22:11:00,2.4,-3.2,30.73,East,83,7.0,10.0,77,0.00,,,0.00,Wunderground v.1.15,2013-01-04 05:11:00,
2013-01-03 22:16:00,2.4,-3.4,30.73,East,86,8.0,10.0,76,0.00,,,0.00,Wunderground v.1.15,2013-01-04 05:16:00,
2013-01-03 22:25:00,2.3,-3.5,30.73,ENE,76,8.0,8.0,76,0.00,,,0.00,Wunderground v.1.15,2013-01-04 05:25:00,
2013-01-03 22:30:00,2.4,-3.7,30.73,East,88,8.0,10.0,75,0.00,,,0.00,Wunderground v.1.15,2013-01-04 05:30:00,
2013-01-03 22:40:00,2.5,-3.9,30.73,ENE,74,9.0,9.0,74,0.00,,,0.00,Wunderground v.1.15,2013-01-04 05:40:00,
2013-01-03 22:45:00,2.4,-4.0,30.73,ENE,78,8.0,9.0,74,0.00,,,0.00,Wunderground v.1.15,2013-01-04 05:45:00,
2013-01-03 22:50:00,2.1,-4.3,30.73,ENE,70,7.0,7.0,74,0.00,,,0.00,Wunderground v.1.15,2013-01-04 05:50:00,
2013-01-03 22:55:00,1.9,-4.5,30.73,East,94,7.0,8.0,74,0.00,,,0.00,Wunderground v.1.15,2013-01-04 05:55:00,
2013-01-03 23:01:00,1.6,-4.8,30.73,ENE,71,7.0,7.0,74,0.00,,,0.00,Wunderground v.1.15,2013-01-04 06:01:00,
2013-01-03 23:11:00,1.4,-4.7,30.73,East,81,8.0,8.0,75,0.00,,,0.00,Wunderground v.1.15,2013-01-04 06:11:00,
2013-01-03 23:16:00,1.2,-4.9,30.73,East,83,7.0,8.0,75,0.00,,,0.00,Wunderground v.1.15,2013-01-04 06:16:00,
2013-01-03 23:25:00,1.0,-5.1,30.74,East,88,7.0,11.0,75,0.00,,,0.00,Wunderground v.1.15,2013-01-04 06:25:00,
2013-01-03 23:30:00,0.9,-5.2,30.73,East,86,7.0,8.0,75,0.00,,,0.00,Wunderground v.1.15,2013-01-04 06:30:00,
2013-01-03 23:36:00,0.7,-5.4,30.74,East,84,7.0,8.0,75,0.00,,,0.00,Wunderground v.1.15,2013-01-04 06:36:00,
2013-01-03 23:41:00,0.5,-5.6,30.74,East,96,7.0,7.0,75,0.00,,,0.00,Wunderground v.1.15,2013-01-04 06:41:00,
2013-01-03 23:50:00,0.1,-5.9,30.74,East,97,6.0,6.0,75,0.00,,,0.00,Wunderground v.1.15,2013-01-04 06:50:00,
2013-01-03 23:55:00,0.1,-5.9,30.74,East,82,6.0,8.0,75,0.00,,,0.00,Wunderground v.1.15,2013-01-04 06:55:00,